| time (UTC) | temp F | wind direction | speed MPH | gust MPH | rain 1hr in | rain 24hr in | rain mn in | humidity % | barometer mb |
| 20260510225854 | 64 | 134 | 8.0 | 19.0 | 0.00 | 0.00 | 0.00 | 39 | 1010.0 |
| 20260510225404 | 64 | 150 | 8.0 | 19.0 | 0.00 | 0.00 | 0.00 | 39 | 1010.0 |
| 20260510224915 | 65 | 115 | 8.0 | 19.0 | 0.00 | 0.00 | 0.00 | 38 | 1010.2 |
| 20260510224419 | 65 | 124 | 8.0 | 18.0 | 0.00 | 0.00 | 0.00 | 39 | 1010.3 |
| 20260510223921 | 65 | 119 | 8.0 | 18.0 | 0.00 | 0.00 | 0.00 | 38 | 1010.1 |
| 20260510223405 | 65 | 123 | 7.0 | 18.0 | 0.00 | 0.00 | 0.00 | 38 | 1010.0 |
| 20260510222233 | 65 | 119 | 8.0 | 21.0 | 0.00 | 0.00 | 0.00 | 38 | 1010.1 |
| 20260510221722 | 65 | 104 | 8.0 | 21.0 | 0.00 | 0.00 | 0.00 | 38 | 1010.1 |
| 20260510221223 | 66 | 112 | 7.0 | 21.0 | 0.00 | 0.00 | 0.00 | 36 | 1010.2 |
| 20260510220105 | 65 | 172 | 10.0 | 20.0 | 0.00 | 0.00 | 0.00 | 36 | 1010.0 |
| 20260510215606 | 65 | 101 | 9.0 | 20.0 | 0.00 | 0.00 | 0.00 | 37 | 1010.1 |
| 20260510215055 | 65 | 117 | 7.0 | 20.0 | 0.00 | 0.00 | 0.00 | 37 | 1010.0 |
| 20260510214605 | 65 | 111 | 6.0 | 16.0 | 0.00 | 0.00 | 0.00 | 38 | 1010.2 |
| 20260510212752 | 65 | 120 | 7.0 | 16.0 | 0.00 | 0.00 | 0.00 | 38 | 1010.2 |
| 20260510212248 | 64 | 105 | 7.0 | 16.0 | 0.00 | 0.00 | 0.00 | 39 | 1010.3 |
| 20260510211746 | 64 | 123 | 7.0 | 19.0 | 0.00 | 0.00 | 0.00 | 39 | 1010.2 |
| 20260510211233 | 65 | 103 | 7.0 | 19.0 | 0.00 | 0.00 | 0.00 | 37 | 1010.1 |
| 20260510210720 | 65 | 119 | 7.0 | 19.0 | 0.00 | 0.00 | 0.00 | 37 | 1010.1 |
| 20260510210225 | 66 | 116 | 7.0 | 19.0 | 0.00 | 0.00 | 0.00 | 37 | 1010.0 |
| 20260510205714 | 65 | 113 | 6.0 | 15.0 | 0.00 | 0.00 | 0.00 | 38 | 1009.9 |
| 20260510204539 | 66 | 109 | 8.0 | 23.0 | 0.00 | 0.00 | 0.00 | 37 | 1010.0 |
| 20260510204028 | 66 | 88 | 8.0 | 23.0 | 0.00 | 0.00 | 0.00 | 37 | 1010.0 |
| 20260510203514 | 66 | 117 | 6.0 | 18.0 | 0.00 | 0.00 | 0.00 | 37 | 1009.7 |
| 20260510202958 | 66 | 191 | 6.0 | 21.0 | 0.00 | 0.00 | 0.00 | 37 | 1010.0 |
| 20260510202507 | 66 | 157 | 7.0 | 21.0 | 0.00 | 0.00 | 0.00 | 36 | 1009.8 |
| 20260510201951 | 65 | 111 | 8.0 | 21.0 | 0.00 | 0.00 | 0.00 | 38 | 1009.8 |
| 20260510201439 | 65 | 107 | 7.0 | 21.0 | 0.00 | 0.00 | 0.00 | 37 | 1009.8 |
| 20260510200947 | 65 | 108 | 7.0 | 18.0 | 0.00 | 0.00 | 0.00 | 37 | 1009.8 |
| 20260510195803 | 63 | 115 | 7.0 | 16.0 | 0.00 | 0.00 | 0.00 | 38 | 1010.0 |
| 20260510195307 | 63 | 114 | 7.0 | 16.0 | 0.00 | 0.00 | 0.00 | 37 | 1010.0 |
| 20260510194814 | 63 | 106 | 6.0 | 16.0 | 0.00 | 0.00 | 0.00 | 36 | 1009.9 |
| 20260510193638 | 65 | 89 | 5.0 | 14.0 | 0.00 | 0.00 | 0.00 | 34 | 1009.4 |
| 20260510193127 | 66 | 75 | 3.0 | 14.0 | 0.00 | 0.00 | 0.00 | 32 | 1009.4 |
| 20260510192635 | 66 | 103 | 3.0 | 10.0 | 0.00 | 0.00 | 0.00 | 31 | 1009.3 |
| 20260510192116 | 66 | 94 | 2.0 | 12.0 | 0.00 | 0.00 | 0.00 | 31 | 1009.3 |
| 20260510191609 | 67 | 188 | 2.0 | 12.0 | 0.00 | 0.00 | 0.00 | 29 | 1009.2 |
| 20260510191109 | 67 | 184 | 3.0 | 12.0 | 0.00 | 0.00 | 0.00 | 30 | 1009.2 |
| 20260510185932 | 70 | 155 | 4.0 | 11.0 | 0.00 | 0.00 | 0.00 | 28 | 1009.1 |
| 20260510185432 | 70 | 184 | 4.0 | 11.0 | 0.00 | 0.00 | 0.00 | 27 | 1009.1 |
| 20260510184318 | 68 | 107 | 3.0 | 11.0 | 0.00 | 0.00 | 0.00 | 27 | 1009.2 |
| 20260510183806 | 68 | 117 | 3.0 | 10.0 | 0.00 | 0.00 | 0.00 | 27 | 1009.3 |
| 20260510183253 | 68 | 103 | 3.0 | 10.0 | 0.00 | 0.00 | 0.00 | 29 | 1009.3 |
| 20260510182735 | 66 | 193 | 3.0 | 11.0 | 0.00 | 0.00 | 0.00 | 33 | 1009.3 |
| 20260510182218 | 66 | 211 | 2.0 | 13.0 | 0.00 | 0.00 | 0.00 | 32 | 1009.3 |
| 20260510181703 | 66 | 119 | 2.0 | 13.0 | 0.00 | 0.00 | 0.00 | 32 | 1009.4 |
| 20260510181148 | 66 | 120 | 3.0 | 13.0 | 0.00 | 0.00 | 0.00 | 33 | 1009.4 |
| 20260510175419 | 67 | 157 | 2.0 | 7.0 | 0.00 | 0.00 | 0.00 | 30 | 1009.5 |
| 20260510174918 | 68 | 156 | 1.0 | 7.0 | 0.00 | 0.00 | 0.00 | 29 | 1009.4 |
| 20260510174420 | 67 | 156 | 2.0 | 7.0 | 0.00 | 0.00 | 0.00 | 30 | 1009.4 |
| 20260510173257 | 66 | 156 | 0.0 | 5.0 | 0.00 | 0.00 | 0.00 | 27 | 1009.4 |
| 20260510172127 | 67 | 67 | 1.0 | 8.0 | 0.00 | 0.00 | 0.00 | 23 | 1009.4 |
| 20260510171612 | 68 | 67 | 1.0 | 8.0 | 0.00 | 0.00 | 0.00 | 21 | 1009.3 |
| 20260510171117 | 68 | 273 | 1.0 | 7.0 | 0.00 | 0.00 | 0.00 | 21 | 1009.2 |
| 20260510170600 | 68 | 266 | 2.0 | 9.0 | 0.00 | 0.00 | 0.00 | 24 | 1009.2 |
| 20260510170100 | 67 | 267 | 1.0 | 9.0 | 0.00 | 0.00 | 0.00 | 25 | 1009.2 |
| 20260510165611 | 66 | 287 | 1.0 | 9.0 | 0.00 | 0.00 | 0.00 | 25 | 1009.1 |
| 20260510165100 | 65 | 296 | 1.0 | 9.0 | 0.00 | 0.00 | 0.00 | 25 | 1009.1 |
| 20260510164545 | 64 | 118 | 2.0 | 8.0 | 0.00 | 0.00 | 0.00 | 27 | 1009.1 |
| 20260510164046 | 64 | 117 | 1.0 | 8.0 | 0.00 | 0.00 | 0.00 | 27 | 1009.0 |
| 20260510163537 | 65 | 115 | 1.0 | 8.0 | 0.00 | 0.00 | 0.00 | 29 | 1009.0 |
| 20260510163042 | 66 | 116 | 2.0 | 9.0 | 0.00 | 0.00 | 0.00 | 28 | 1008.9 |
| 20260510162523 | 66 | 116 | 2.0 | 9.0 | 0.00 | 0.00 | 0.00 | 27 | 1008.8 |
| 20260510162027 | 66 | 116 | 1.0 | 9.0 | 0.00 | 0.00 | 0.00 | 28 | 1008.8 |
| 20260510160908 | 66 | 208 | 0.0 | 3.0 | 0.00 | 0.00 | 0.00 | 27 | 1008.8 |
| 20260510160352 | 66 | 207 | 1.0 | 10.0 | 0.00 | 0.00 | 0.00 | 27 | 1008.8 |
| 20260510155833 | 66 | 208 | 2.0 | 10.0 | 0.00 | 0.00 | 0.00 | 27 | 1008.8 |
| 20260510154726 | 65 | 157 | 1.0 | 8.0 | 0.00 | 0.00 | 0.00 | 29 | 1008.6 |
| 20260510154210 | 64 | 157 | 1.0 | 8.0 | 0.00 | 0.00 | 0.00 | 30 | 1008.6 |
| 20260510153709 | 64 | 157 | 1.0 | 9.0 | 0.00 | 0.00 | 0.00 | 30 | 1008.6 |
| 20260510153157 | 64 | 157 | 2.0 | 9.0 | 0.00 | 0.00 | 0.00 | 30 | 1008.7 |
| 20260510152646 | 64 | 109 | 2.0 | 9.0 | 0.00 | 0.00 | 0.00 | 32 | 1008.6 |
| 20260510152134 | 63 | 109 | 2.0 | 9.0 | 0.00 | 0.00 | 0.00 | 32 | 1008.6 |
| 20260510151636 | 63 | 109 | 2.0 | 7.0 | 0.00 | 0.00 | 0.00 | 32 | 1008.6 |
| 20260510145900 | 62 | 110 | 3.0 | 11.0 | 0.00 | 0.00 | 0.00 | 35 | 1008.4 |
| 20260510145354 | 62 | 114 | 2.0 | 10.0 | 0.00 | 0.00 | 0.00 | 34 | 1008.4 |
| 20260510144835 | 61 | 128 | 2.0 | 10.0 | 0.00 | 0.00 | 0.00 | 35 | 1008.4 |
| 20260510144318 | 61 | 189 | 2.0 | 9.0 | 0.00 | 0.00 | 0.00 | 35 | 1008.4 |
| 20260510143814 | 61 | 105 | 3.0 | 9.0 | 0.00 | 0.00 | 0.00 | 35 | 1008.4 |
| 20260510140758 | 58 | 104 | 2.0 | 9.0 | 0.00 | 0.00 | 0.00 | 37 | 1008.2 |
| 20260510140304 | 58 | 133 | 1.0 | 6.0 | 0.00 | 0.00 | 0.00 | 38 | 1008.2 |
| 20260510135809 | 57 | 132 | 1.0 | 7.0 | 0.00 | 0.00 | 0.00 | 38 | 1008.2 |
| 20260510135312 | 57 | 133 | 1.0 | 7.0 | 0.00 | 0.00 | 0.00 | 39 | 1008.2 |
| 20260510134800 | 56 | 133 | 1.0 | 7.0 | 0.00 | 0.00 | 0.00 | 39 | 1008.2 |
| 20260510134309 | 56 | 132 | 1.0 | 7.0 | 0.00 | 0.00 | 0.00 | 39 | 1008.1 |
| 20260510133812 | 56 | 188 | 1.0 | 5.0 | 0.00 | 0.00 | 0.00 | 39 | 1008.2 |
| 20260510132713 | 55 | 190 | 1.0 | 4.0 | 0.00 | 0.00 | 0.00 | 40 | 1008.1 |
| 20260510132201 | 55 | 190 | 0.0 | 4.0 | 0.00 | 0.00 | 0.00 | 40 | 1008.0 |
| 20260510131649 | 55 | 190 | 0.0 | 2.0 | 0.00 | 0.00 | 0.00 | 40 | 1007.9 |
| 20260510130510 | 54 | 190 | 0.0 | 1.0 | 0.00 | 0.00 | 0.00 | 39 | 1007.7 |
| 20260510125959 | 54 | 190 | 0.0 | 0.0 | 0.00 | 0.00 | 0.00 | 40 | 1007.6 |
| 20260510125440 | 54 | 190 | 0.0 | 0.0 | 0.00 | 0.00 | 0.00 | 39 | 1007.6 |
| 20260510124930 | 54 | 190 | 0.0 | 3.0 | 0.00 | 0.00 | 0.00 | 39 | 1007.5 |
| 20260510123151 | 55 | 191 | 0.0 | 0.0 | 0.00 | 0.00 | 0.00 | 37 | 1007.3 |
| 20260510122646 | 55 | 191 | 1.0 | 4.0 | 0.00 | 0.00 | 0.00 | 36 | 1007.3 |
| 20260510122140 | 56 | 191 | 1.0 | 3.0 | 0.00 | 0.00 | 0.00 | 36 | 1007.3 |
| 20260510121635 | 56 | 191 | 0.0 | 2.0 | 0.00 | 0.00 | 0.00 | 35 | 1007.3 |
| 20260510121116 | 56 | 191 | 0.0 | 2.0 | 0.00 | 0.00 | 0.00 | 35 | 1007.2 |
| 20260510120001 | 57 | 191 | 0.0 | 2.0 | 0.00 | 0.00 | 0.00 | 34 | 1007.1 |
| 20260510115510 | 57 | 191 | 0.0 | 2.0 | 0.00 | 0.00 | 0.00 | 33 | 1007.3 |
| 20260510115018 | 57 | 191 | 0.0 | 0.0 | 0.00 | 0.00 | 0.00 | 33 | 1007.3 |
| 20260510114514 | 58 | 192 | 0.0 | 0.0 | 0.00 | 0.00 | 0.00 | 32 | 1007.3 |
| 20260510114006 | 58 | 191 | 0.0 | 4.0 | 0.00 | 0.00 | 0.00 | 31 | 1007.3 |
| 20260510113515 | 58 | 192 | 0.0 | 11.0 | 0.00 | 0.00 | 0.00 | 32 | 1007.7 |
| 20260510113015 | 58 | 192 | 1.0 | 11.0 | 0.00 | 0.00 | 0.00 | 32 | 1007.8 |
| 20260510112513 | 58 | 298 | 1.0 | 11.0 | 0.00 | 0.00 | 0.00 | 32 | 1008.2 |
| 20260510111957 | 58 | 292 | 1.0 | 8.0 | 0.00 | 0.00 | 0.00 | 31 | 1008.3 |
| 20260510111452 | 58 | 292 | 0.0 | 8.0 | 0.00 | 0.00 | 0.00 | 31 | 1008.3 |
| 20260510110946 | 59 | 36 | 0.0 | 3.0 | 0.00 | 0.00 | 0.00 | 31 | 1008.3 |
| 20260510110427 | 59 | 36 | 1.0 | 1.0 | 0.00 | 0.00 | 0.00 | 31 | 1008.1 |
| 20260510105916 | 59 | 36 | 2.0 | 11.0 | 0.00 | 0.00 | 0.00 | 31 | 1008.1 |
| 20260510105357 | 59 | 294 | 2.0 | 11.0 | 0.00 | 0.00 | 0.00 | 30 | 1008.3 |
| 20260510103621 | 58 | 258 | 2.0 | 17.0 | 0.00 | 0.00 | 0.00 | 30 | 1007.8 |
| 20260510103123 | 58 | 0 | 0.0 | 2.0 | 0.00 | 0.00 | 0.00 | 26 | 1007.4 |
| 20260510102627 | 58 | 0 | 0.0 | 0.0 | 0.00 | 0.00 | 0.00 | 26 | 1007.3 |
| 20260510102136 | 58 | 0 | 0.0 | 0.0 | 0.00 | 0.00 | 0.00 | 26 | 1007.3 |
| 20260510101025 | 59 | 0 | 0.0 | 2.0 | 0.00 | 0.00 | 0.00 | 25 | 1007.3 |
| 20260510100533 | 59 | 0 | 0.0 | 0.0 | 0.00 | 0.00 | 0.00 | 25 | 1007.2 |
| 20260510100042 | 59 | 0 | 0.0 | 0.0 | 0.00 | 0.00 | 0.00 | 26 | 1007.1 |
| 20260510095524 | 58 | 5 | 0.0 | 1.0 | 0.00 | 0.00 | 0.00 | 26 | 1007.1 |
| 20260510095018 | 57 | 5 | 0.0 | 1.0 | 0.00 | 0.00 | 0.00 | 28 | 1007.1 |
| 20260510094503 | 56 | 5 | 0.0 | 2.0 | 0.00 | 0.00 | 0.00 | 28 | 1007.1 |
| 20260510094012 | 56 | 5 | 0.0 | 0.0 | 0.00 | 0.00 | 0.00 | 28 | 1007.1 |
| 20260510093508 | 56 | 5 | 0.0 | 0.0 | 0.00 | 0.00 | 0.00 | 28 | 1007.1 |
| 20260510093002 | 56 | 5 | 0.0 | 0.0 | 0.00 | 0.00 | 0.00 | 28 | 1007.1 |
| 20260510092448 | 56 | 5 | 0.0 | 0.0 | 0.00 | 0.00 | 0.00 | 28 | 1007.0 |
| 20260510091942 | 56 | 5 | 0.0 | 0.0 | 0.00 | 0.00 | 0.00 | 28 | 1006.9 |
| 20260510091426 | 55 | 5 | 0.0 | 0.0 | 0.00 | 0.00 | 0.00 | 28 | 1006.8 |
| 20260510090914 | 55 | 5 | 0.0 | 2.0 | 0.00 | 0.00 | 0.00 | 29 | 1006.7 |
| 20260510090406 | 55 | 5 | 0.0 | 0.0 | 0.00 | 0.00 | 0.00 | 29 | 1006.6 |
| 20260510085900 | 54 | 5 | 0.0 | 0.0 | 0.00 | 0.00 | 0.00 | 29 | 1006.6 |
| 20260510085354 | 54 | 5 | 0.0 | 3.0 | 0.00 | 0.00 | 0.00 | 29 | 1006.4 |
| 20260510084836 | 54 | 5 | 0.0 | 1.0 | 0.00 | 0.00 | 0.00 | 29 | 1006.3 |
| 20260510084345 | 53 | 5 | 0.0 | 0.0 | 0.00 | 0.00 | 0.00 | 29 | 1006.2 |
| 20260510083838 | 54 | 5 | 0.0 | 1.0 | 0.00 | 0.00 | 0.00 | 29 | 1006.2 |
| 20260510083339 | 54 | 5 | 0.0 | 1.0 | 0.00 | 0.00 | 0.00 | 29 | 1006.3 |
| 20260510082835 | 54 | 5 | 0.0 | 1.0 | 0.00 | 0.00 | 0.00 | 29 | 1006.3 |
| 20260510082339 | 54 | 5 | 0.0 | 0.0 | 0.00 | 0.00 | 0.00 | 29 | 1006.2 |
| 20260510081831 | 54 | 5 | 0.0 | 0.0 | 0.00 | 0.00 | 0.00 | 29 | 1006.2 |
| 20260510081313 | 54 | 5 | 0.0 | 0.0 | 0.00 | 0.00 | 0.00 | 28 | 1006.1 |
| 20260510080817 | 54 | 5 | 0.0 | 0.0 | 0.00 | 0.00 | 0.00 | 28 | 1006.1 |
| 20260510075703 | 54 | 5 | 0.0 | 0.0 | 0.00 | 0.00 | 0.00 | 27 | 1005.9 |
| 20260510075205 | 54 | 5 | 0.0 | 2.0 | 0.00 | 0.00 | 0.00 | 27 | 1005.9 |
| 20260510074656 | 54 | 5 | 0.0 | 2.0 | 0.00 | 0.00 | 0.00 | 27 | 1005.9 |
| 20260510073549 | 55 | 5 | 0.0 | 1.0 | 0.00 | 0.00 | 0.00 | 27 | 1005.8 |
| 20260510072428 | 55 | 5 | 0.0 | 3.0 | 0.00 | 0.00 | 0.00 | 26 | 1005.9 |
| 20260510071921 | 55 | 5 | 0.0 | 3.0 | 0.00 | 0.00 | 0.00 | 26 | 1006.0 |
| 20260510071414 | 55 | 5 | 0.0 | 0.0 | 0.00 | 0.00 | 0.00 | 26 | 1005.8 |
| 20260510070919 | 55 | 5 | 0.0 | 1.0 | 0.00 | 0.00 | 0.00 | 26 | 1005.9 |
| 20260510070421 | 55 | 5 | 0.0 | 2.0 | 0.00 | 0.00 | 0.00 | 26 | 1005.9 |
| 20260510065922 | 55 | 5 | 0.0 | 0.0 | 0.00 | 0.00 | 0.00 | 25 | 1005.9 |
| 20260510065415 | 55 | 5 | 0.0 | 0.0 | 0.00 | 0.00 | 0.00 | 26 | 1005.8 |
| 20260510064245 | 54 | 5 | 0.0 | 3.0 | 0.00 | 0.00 | 0.00 | 25 | 1005.6 |
| 20260510063128 | 53 | 5 | 0.0 | 3.0 | 0.00 | 0.00 | 0.00 | 25 | 1005.6 |
| 20260510062004 | 53 | 5 | 0.0 | 3.0 | 0.00 | 0.00 | 0.00 | 25 | 1005.5 |
| 20260510061502 | 53 | 10 | 0.0 | 1.0 | 0.00 | 0.00 | 0.00 | 26 | 1005.4 |
| 20260510061009 | 53 | 10 | 0.0 | 1.0 | 0.00 | 0.00 | 0.00 | 25 | 1005.4 |
| 20260510060510 | 53 | 10 | 0.0 | 0.0 | 0.00 | 0.00 | 0.00 | 24 | 1005.3 |
| 20260510060003 | 54 | 10 | 0.0 | 0.0 | 0.00 | 0.00 | 0.00 | 24 | 1005.3 |
| 20260510055511 | 54 | 10 | 0.0 | 3.0 | 0.00 | 0.00 | 0.00 | 24 | 1005.2 |
| 20260510055021 | 54 | 9 | 0.0 | 7.0 | 0.00 | 0.00 | 0.00 | 23 | 1005.1 |
| 20260510054504 | 54 | 9 | 0.0 | 7.0 | 0.00 | 0.00 | 0.00 | 24 | 1005.0 |
| 20260510053950 | 54 | 10 | 0.0 | 7.0 | 0.00 | 0.00 | 0.00 | 24 | 1005.0 |
| 20260510053436 | 54 | 304 | 0.0 | 3.0 | 0.00 | 0.00 | 0.00 | 24 | 1005.0 |
| 20260510052940 | 55 | 300 | 0.0 | 2.0 | 0.00 | 0.00 | 0.00 | 23 | 1005.0 |
| 20260510052427 | 55 | 300 | 0.0 | 2.0 | 0.00 | 0.00 | 0.00 | 23 | 1005.0 |
| 20260510051913 | 56 | 300 | 0.0 | 0.0 | 0.00 | 0.00 | 0.00 | 23 | 1005.0 |
| 20260510051411 | 56 | 300 | 0.0 | 0.0 | 0.00 | 0.00 | 0.00 | 22 | 1005.0 |
| 20260510050915 | 57 | 300 | 0.0 | 1.0 | 0.00 | 0.00 | 0.00 | 22 | 1005.0 |
| 20260510045753 | 58 | 300 | 0.0 | 0.0 | 0.00 | 0.00 | 0.00 | 21 | 1004.9 |
| 20260510045254 | 58 | 300 | 0.0 | 0.0 | 0.00 | 0.00 | 0.00 | 21 | 1005.0 |
| 20260510044746 | 59 | 300 | 0.0 | 0.0 | 0.00 | 0.00 | 0.00 | 20 | 1004.9 |
| 20260510044237 | 59 | 300 | 0.0 | 0.0 | 0.00 | 0.00 | 0.00 | 21 | 1004.9 |
| 20260510043745 | 60 | 296 | 0.0 | 1.0 | 0.00 | 0.00 | 0.00 | 21 | 1004.8 |
| 20260510043255 | 60 | 296 | 0.0 | 1.0 | 0.00 | 0.00 | 0.00 | 21 | 1004.8 |
| 20260510042744 | 61 | 296 | 0.0 | 2.0 | 0.00 | 0.00 | 0.00 | 20 | 1004.9 |
| 20260510042241 | 61 | 296 | 0.0 | 0.0 | 0.00 | 0.00 | 0.00 | 20 | 1004.9 |
| 20260510041749 | 61 | 296 | 0.0 | 2.0 | 0.00 | 0.00 | 0.00 | 20 | 1004.8 |
| 20260510041243 | 62 | 296 | 0.0 | 2.0 | 0.00 | 0.00 | 0.00 | 20 | 1004.7 |
| 20260510040737 | 63 | 296 | 0.0 | 0.0 | 0.00 | 0.00 | 0.00 | 20 | 1004.7 |
| 20260510035606 | 64 | 296 | 0.0 | 0.0 | 0.00 | 0.00 | 0.00 | 19 | 1004.6 |
| 20260510035055 | 65 | 296 | 0.0 | 0.0 | 0.00 | 0.00 | 0.00 | 19 | 1004.8 |
| 20260510034559 | 65 | 296 | 0.0 | 2.0 | 0.00 | 0.00 | 0.00 | 18 | 1004.7 |
| 20260510034104 | 66 | 296 | 0.0 | 2.0 | 0.00 | 0.00 | 0.00 | 18 | 1004.7 |
| 20260510033545 | 66 | 296 | 0.0 | 1.0 | 0.00 | 0.00 | 0.00 | 18 | 1004.6 |
| 20260510033051 | 66 | 296 | 1.0 | 10.0 | 0.00 | 0.00 | 0.00 | 18 | 1004.5 |
| 20260510031933 | 66 | 286 | 1.0 | 8.0 | 0.00 | 0.00 | 0.00 | 18 | 1004.6 |
| 20260510031421 | 66 | 287 | 1.0 | 7.0 | 0.00 | 0.00 | 0.00 | 18 | 1004.8 |
| 20260510030256 | 66 | 355 | 1.0 | 10.0 | 0.00 | 0.00 | 0.00 | 18 | 1004.7 |
| 20260510025750 | 65 | 315 | 2.0 | 10.0 | 0.00 | 0.00 | 0.00 | 18 | 1004.7 |
| 20260510025231 | 64 | 312 | 2.0 | 10.0 | 0.00 | 0.00 | 0.00 | 20 | 1004.5 |
| 20260510024717 | 63 | 247 | 0.0 | 6.0 | 0.00 | 0.00 | 0.00 | 19 | 1004.5 |
| 20260510023609 | 64 | 306 | 0.0 | 0.0 | 0.00 | 0.00 | 0.00 | 18 | 1004.3 |
| 20260510023116 | 64 | 306 | 0.0 | 0.0 | 0.00 | 0.00 | 0.00 | 18 | 1004.2 |
| 20260510022604 | 65 | 306 | 0.0 | 0.0 | 0.00 | 0.00 | 0.00 | 17 | 1004.2 |
| 20260510022059 | 66 | 306 | 0.0 | 0.0 | 0.00 | 0.00 | 0.00 | 17 | 1004.1 |
| 20260510021605 | 66 | 306 | 0.0 | 0.0 | 0.00 | 0.00 | 0.00 | 16 | 1004.1 |
| 20260510021058 | 66 | 306 | 0.0 | 4.0 | 0.00 | 0.00 | 0.00 | 16 | 1004.0 |
| 20260510015932 | 67 | 302 | 0.0 | 0.0 | 0.00 | 0.00 | 0.00 | 16 | 1003.9 |
| 20260510015430 | 67 | 302 | 0.0 | 0.0 | 0.00 | 0.00 | 0.00 | 15 | 1003.9 |
| 20260510014911 | 67 | 302 | 0.0 | 0.0 | 0.00 | 0.00 | 0.00 | 15 | 1003.9 |
| 20260510014354 | 68 | 302 | 0.0 | 0.0 | 0.00 | 0.00 | 0.00 | 15 | 1003.8 |
| 20260510013217 | 69 | 302 | 0.0 | 0.0 | 0.00 | 0.00 | 0.00 | 14 | 1003.8 |
| 20260510012712 | 69 | 302 | 0.0 | 1.0 | 0.00 | 0.00 | 0.00 | 14 | 1003.7 |
| 20260510012217 | 69 | 325 | 0.0 | 0.0 | 0.00 | 0.00 | 0.00 | 14 | 1003.6 |
| 20260510011707 | 70 | 326 | 0.0 | 7.0 | 0.00 | 0.00 | 0.00 | 14 | 1003.5 |
| 20260510011156 | 70 | 327 | 1.0 | 7.0 | 0.00 | 0.00 | 0.00 | 13 | 1003.5 |
| 20260510010704 | 70 | 284 | 0.0 | 12.0 | 0.00 | 0.00 | 0.00 | 14 | 1003.5 |
| 20260510010151 | 70 | 294 | 1.0 | 12.0 | 0.00 | 0.00 | 0.00 | 13 | 1003.4 |
| 20260510005638 | 71 | 304 | 2.0 | 12.0 | 0.00 | 0.00 | 0.00 | 14 | 1003.5 |
| 20260510004532 | 71 | 306 | 2.0 | 10.0 | 0.00 | 0.00 | 0.00 | 14 | 1003.5 |
| 20260510004031 | 71 | 288 | 3.0 | 11.0 | 0.00 | 0.00 | 0.00 | 13 | 1003.4 |
| 20260510002252 | 73 | 284 | 2.0 | 11.0 | 0.00 | 0.00 | 0.00 | 12 | 1003.3 |
| 20260510001751 | 74 | 350 | 1.0 | 6.0 | 0.00 | 0.00 | 0.00 | 12 | 1003.2 |
| 20260510001257 | 74 | 325 | 1.0 | 6.0 | 0.00 | 0.00 | 0.00 | 11 | 1003.2 |
| 20260510000802 | 73 | 328 | 2.0 | 12.0 | 0.00 | 0.00 | 0.00 | 12 | 1003.2 |
| 20260510000248 | 73 | 300 | 2.0 | 12.0 | 0.00 | 0.00 | 0.00 | 12 | 1003.2 |
| 20260509235737 | 74 | 289 | 2.0 | 12.0 | 0.00 | 0.00 | 0.00 | 11 | 1003.2 |
| 20260509234559 | 75 | 309 | 3.0 | 11.0 | 0.00 | 0.00 | 0.00 | 11 | 1003.3 |
| 20260509234047 | 74 | 257 | 2.0 | 11.0 | 0.00 | 0.00 | 0.00 | 11 | 1003.4 |
| 20260509233548 | 75 | 250 | 2.0 | 9.0 | 0.00 | 0.00 | 0.00 | 11 | 1003.3 |
| 20260509233040 | 75 | 287 | 1.0 | 9.0 | 0.00 | 0.00 | 0.00 | 11 | 1003.4 |
| 20260509232547 | 75 | 297 | 1.0 | 6.0 | 0.00 | 0.00 | 0.00 | 10 | 1003.5 |
| 20260509232058 | 75 | 286 | 2.0 | 18.0 | 0.00 | 0.00 | 0.00 | 11 | 1003.5 |
| 20260509231558 | 75 | 287 | 3.0 | 18.0 | 0.00 | 0.00 | 0.00 | 9 | 1003.6 |
| 20260509231046 | 77 | 305 | 3.0 | 18.0 | 0.00 | 0.00 | 0.00 | 9 | 1003.6 |